sensor_id;sensor_type;location;lat;lon;timestamp;temperature;humidity
36670;DHT22;22662;47.412;9.742;2022-11-24T00:01:41;6.90;99.90
36670;DHT22;22662;47.412;9.742;2022-11-24T00:04:06;6.90;99.90
36670;DHT22;22662;47.412;9.742;2022-11-24T00:06:32;7.00;99.90
36670;DHT22;22662;47.412;9.742;2022-11-24T00:08:58;7.00;99.90
36670;DHT22;22662;47.412;9.742;2022-11-24T00:11:25;7.00;99.90
36670;DHT22;22662;47.412;9.742;2022-11-24T00:13:51;7.00;99.90
36670;DHT22;22662;47.412;9.742;2022-11-24T00:16:18;6.90;99.90
36670;DHT22;22662;47.412;9.742;2022-11-24T00:18:45;6.80;99.90
36670;DHT22;22662;47.412;9.742;2022-11-24T00:21:11;6.90;99.90
36670;DHT22;22662;47.412;9.742;2022-11-24T00:23:37;6.90;99.90
36670;DHT22;22662;47.412;9.742;2022-11-24T00:26:04;6.90;99.90
36670;DHT22;22662;47.412;9.742;2022-11-24T00:28:30;6.80;99.90
36670;DHT22;22662;47.412;9.742;2022-11-24T00:30:56;6.70;99.90
36670;DHT22;22662;47.412;9.742;2022-11-24T00:33:21;6.70;99.90
36670;DHT22;22662;47.412;9.742;2022-11-24T00:35:52;6.70;99.90
36670;DHT22;22662;47.412;9.742;2022-11-24T00:38:18;6.70;99.90
36670;DHT22;22662;47.412;9.742;2022-11-24T00:40:43;6.70;99.90
36670;DHT22;22662;47.412;9.742;2022-11-24T00:43:09;6.60;99.90
36670;DHT22;22662;47.412;9.742;2022-11-24T00:45:34;6.50;99.90
36670;DHT22;22662;47.412;9.742;2022-11-24T00:48:00;6.60;99.90
36670;DHT22;22662;47.412;9.742;2022-11-24T00:50:25;6.60;99.90
36670;DHT22;22662;47.412;9.742;2022-11-24T00:52:51;6.60;99.90
36670;DHT22;22662;47.412;9.742;2022-11-24T00:55:17;6.50;99.90
36670;DHT22;22662;47.412;9.742;2022-11-24T00:57:42;6.30;99.90
36670;DHT22;22662;47.412;9.742;2022-11-24T01:00:08;6.10;99.90
36670;DHT22;22662;47.412;9.742;2022-11-24T01:02:33;6.00;99.90
36670;DHT22;22662;47.412;9.742;2022-11-24T01:04:59;5.90;99.90
36670;DHT22;22662;47.412;9.742;2022-11-24T01:07:24;5.80;99.90
36670;DHT22;22662;47.412;9.742;2022-11-24T01:09:50;5.80;99.90
36670;DHT22;22662;47.412;9.742;2022-11-24T01:12:15;5.80;99.90
36670;DHT22;22662;47.412;9.742;2022-11-24T01:14:41;5.90;99.90
36670;DHT22;22662;47.412;9.742;2022-11-24T01:17:06;6.00;99.90
36670;DHT22;22662;47.412;9.742;2022-11-24T01:19:32;6.20;99.90
36670;DHT22;22662;47.412;9.742;2022-11-24T01:21:57;6.40;99.90
36670;DHT22;22662;47.412;9.742;2022-11-24T01:24:23;6.50;99.90
36670;DHT22;22662;47.412;9.742;2022-11-24T01:26:49;6.50;99.90
36670;DHT22;22662;47.412;9.742;2022-11-24T01:29:15;6.30;99.90
36670;DHT22;22662;47.412;9.742;2022-11-24T01:31:40;6.10;99.90
36670;DHT22;22662;47.412;9.742;2022-11-24T01:34:06;6.00;99.90
36670;DHT22;22662;47.412;9.742;2022-11-24T01:36:31;6.00;99.90
36670;DHT22;22662;47.412;9.742;2022-11-24T01:38:57;5.90;99.90
36670;DHT22;22662;47.412;9.742;2022-11-24T01:41:23;6.00;99.90
36670;DHT22;22662;47.412;9.742;2022-11-24T01:43:49;6.10;99.90
36670;DHT22;22662;47.412;9.742;2022-11-24T01:46:18;6.10;99.90
36670;DHT22;22662;47.412;9.742;2022-11-24T01:48:57;6.10;99.90
36670;DHT22;22662;47.412;9.742;2022-11-24T01:51:25;6.10;99.90
36670;DHT22;22662;47.412;9.742;2022-11-24T01:54:13;6.10;99.90
36670;DHT22;22662;47.412;9.742;2022-11-24T01:56:37;6.00;99.90
36670;DHT22;22662;47.412;9.742;2022-11-24T01:59:04;6.00;99.90
36670;DHT22;22662;47.412;9.742;2022-11-24T02:01:31;5.90;99.90
36670;DHT22;22662;47.412;9.742;2022-11-24T02:03:57;5.90;99.90
36670;DHT22;22662;47.412;9.742;2022-11-24T02:06:25;6.00;99.90
36670;DHT22;22662;47.412;9.742;2022-11-24T02:09:08;6.00;99.90
36670;DHT22;22662;47.412;9.742;2022-11-24T02:11:36;6.10;99.90
36670;DHT22;22662;47.412;9.742;2022-11-24T02:14:03;6.20;99.90
36670;DHT22;22662;47.412;9.742;2022-11-24T02:16:29;6.10;99.90
36670;DHT22;22662;47.412;9.742;2022-11-24T02:18:54;6.10;99.90
36670;DHT22;22662;47.412;9.742;2022-11-24T02:21:20;6.00;99.90
36670;DHT22;22662;47.412;9.742;2022-11-24T02:23:51;6.10;99.90
36670;DHT22;22662;47.412;9.742;2022-11-24T02:28:53;6.00;99.90
36670;DHT22;22662;47.412;9.742;2022-11-24T02:31:19;6.10;99.90
36670;DHT22;22662;47.412;9.742;2022-11-24T02:33:45;6.20;99.90
36670;DHT22;22662;47.412;9.742;2022-11-24T02:36:11;6.20;99.90
36670;DHT22;22662;47.412;9.742;2022-11-24T02:38:37;6.30;99.90
36670;DHT22;22662;47.412;9.742;2022-11-24T02:41:04;6.30;99.90
36670;DHT22;22662;47.412;9.742;2022-11-24T02:43:31;6.20;99.90
36670;DHT22;22662;47.412;9.742;2022-11-24T02:45:58;6.10;99.90
36670;DHT22;22662;47.412;9.742;2022-11-24T02:48:24;6.00;99.90
36670;DHT22;22662;47.412;9.742;2022-11-24T02:50:49;6.00;99.90
36670;DHT22;22662;47.412;9.742;2022-11-24T02:53:15;5.90;99.90
36670;DHT22;22662;47.412;9.742;2022-11-24T02:55:40;5.90;99.90
36670;DHT22;22662;47.412;9.742;2022-11-24T02:58:06;5.90;99.90
36670;DHT22;22662;47.412;9.742;2022-11-24T03:00:31;5.80;99.90
36670;DHT22;22662;47.412;9.742;2022-11-24T03:02:57;5.70;99.90
36670;DHT22;22662;47.412;9.742;2022-11-24T03:05:23;5.70;99.90
36670;DHT22;22662;47.412;9.742;2022-11-24T03:07:48;5.70;99.90
36670;DHT22;22662;47.412;9.742;2022-11-24T03:10:14;5.70;99.90
36670;DHT22;22662;47.412;9.742;2022-11-24T03:12:40;5.80;99.90
36670;DHT22;22662;47.412;9.742;2022-11-24T03:15:05;5.80;99.90
36670;DHT22;22662;47.412;9.742;2022-11-24T03:17:31;5.90;99.90
36670;DHT22;22662;47.412;9.742;2022-11-24T03:19:57;6.00;99.90
36670;DHT22;22662;47.412;9.742;2022-11-24T03:22:24;6.10;99.90
36670;DHT22;22662;47.412;9.742;2022-11-24T03:24:49;6.10;99.90
36670;DHT22;22662;47.412;9.742;2022-11-24T03:27:15;6.20;99.90
36670;DHT22;22662;47.412;9.742;2022-11-24T03:29:40;6.30;99.90
36670;DHT22;22662;47.412;9.742;2022-11-24T03:32:06;6.30;99.90
36670;DHT22;22662;47.412;9.742;2022-11-24T03:34:31;6.40;99.90
36670;DHT22;22662;47.412;9.742;2022-11-24T03:36:57;6.30;99.90
36670;DHT22;22662;47.412;9.742;2022-11-24T03:39:23;6.40;99.90
36670;DHT22;22662;47.412;9.742;2022-11-24T03:41:48;6.40;99.90
36670;DHT22;22662;47.412;9.742;2022-11-24T03:44:16;6.30;99.90
36670;DHT22;22662;47.412;9.742;2022-11-24T03:46:41;6.30;99.90
36670;DHT22;22662;47.412;9.742;2022-11-24T03:49:07;6.20;99.90
36670;DHT22;22662;47.412;9.742;2022-11-24T03:51:32;6.30;99.90
36670;DHT22;22662;47.412;9.742;2022-11-24T03:53:58;6.20;99.90
36670;DHT22;22662;47.412;9.742;2022-11-24T03:56:23;6.00;99.90
36670;DHT22;22662;47.412;9.742;2022-11-24T03:58:49;6.00;99.90
36670;DHT22;22662;47.412;9.742;2022-11-24T04:01:14;6.00;99.90
36670;DHT22;22662;47.412;9.742;2022-11-24T04:03:40;5.90;99.90
36670;DHT22;22662;47.412;9.742;2022-11-24T04:06:05;5.90;99.90
36670;DHT22;22662;47.412;9.742;2022-11-24T04:08:31;5.90;99.90
36670;DHT22;22662;47.412;9.742;2022-11-24T04:10:56;6.00;99.90
36670;DHT22;22662;47.412;9.742;2022-11-24T04:13:23;6.10;99.90
36670;DHT22;22662;47.412;9.742;2022-11-24T04:15:48;6.10;99.90
36670;DHT22;22662;47.412;9.742;2022-11-24T04:18:14;6.00;99.90
36670;DHT22;22662;47.412;9.742;2022-11-24T04:20:40;6.00;99.90
36670;DHT22;22662;47.412;9.742;2022-11-24T04:23:05;6.00;99.90
36670;DHT22;22662;47.412;9.742;2022-11-24T04:25:31;5.90;99.90
36670;DHT22;22662;47.412;9.742;2022-11-24T04:27:57;6.00;99.90
36670;DHT22;22662;47.412;9.742;2022-11-24T04:30:23;5.90;99.90
36670;DHT22;22662;47.412;9.742;2022-11-24T04:32:49;5.90;99.90
36670;DHT22;22662;47.412;9.742;2022-11-24T04:35:15;6.00;99.90
36670;DHT22;22662;47.412;9.742;2022-11-24T04:37:40;6.00;99.90
36670;DHT22;22662;47.412;9.742;2022-11-24T04:40:07;6.10;99.90
36670;DHT22;22662;47.412;9.742;2022-11-24T04:42:32;6.20;99.90
36670;DHT22;22662;47.412;9.742;2022-11-24T04:44:58;6.10;99.90
36670;DHT22;22662;47.412;9.742;2022-11-24T04:47:24;6.00;99.90
36670;DHT22;22662;47.412;9.742;2022-11-24T04:49:50;5.90;99.90
36670;DHT22;22662;47.412;9.742;2022-11-24T04:52:19;5.90;99.90
36670;DHT22;22662;47.412;9.742;2022-11-24T04:54:45;5.80;99.90
36670;DHT22;22662;47.412;9.742;2022-11-24T04:57:18;5.70;99.90
36670;DHT22;22662;47.412;9.742;2022-11-24T04:59:44;5.70;99.90
36670;DHT22;22662;47.412;9.742;2022-11-24T05:02:09;5.70;99.90
36670;DHT22;22662;47.412;9.742;2022-11-24T05:04:35;5.60;99.90
36670;DHT22;22662;47.412;9.742;2022-11-24T05:07:01;5.60;99.90
36670;DHT22;22662;47.412;9.742;2022-11-24T05:09:26;5.60;99.90
36670;DHT22;22662;47.412;9.742;2022-11-24T05:11:52;5.70;99.90
36670;DHT22;22662;47.412;9.742;2022-11-24T05:14:17;5.70;99.90
36670;DHT22;22662;47.412;9.742;2022-11-24T05:16:43;5.70;99.90
36670;DHT22;22662;47.412;9.742;2022-11-24T05:19:08;5.70;99.90
36670;DHT22;22662;47.412;9.742;2022-11-24T05:21:34;5.80;99.90
36670;DHT22;22662;47.412;9.742;2022-11-24T05:23:59;6.00;99.90
36670;DHT22;22662;47.412;9.742;2022-11-24T05:26:25;6.00;99.90
36670;DHT22;22662;47.412;9.742;2022-11-24T05:28:51;6.00;99.90
36670;DHT22;22662;47.412;9.742;2022-11-24T05:31:17;5.90;99.90
36670;DHT22;22662;47.412;9.742;2022-11-24T05:33:42;5.90;99.90
36670;DHT22;22662;47.412;9.742;2022-11-24T05:36:08;6.00;99.90
36670;DHT22;22662;47.412;9.742;2022-11-24T05:38:53;5.90;99.90
36670;DHT22;22662;47.412;9.742;2022-11-24T05:41:19;5.90;99.90
36670;DHT22;22662;47.412;9.742;2022-11-24T05:43:44;5.80;99.90
36670;DHT22;22662;47.412;9.742;2022-11-24T05:46:10;5.90;99.90
36670;DHT22;22662;47.412;9.742;2022-11-24T05:48:35;5.90;99.90
36670;DHT22;22662;47.412;9.742;2022-11-24T05:51:01;5.80;99.90
36670;DHT22;22662;47.412;9.742;2022-11-24T05:53:30;5.80;99.90
36670;DHT22;22662;47.412;9.742;2022-11-24T05:55:55;5.80;99.90
36670;DHT22;22662;47.412;9.742;2022-11-24T05:58:21;5.80;99.90
36670;DHT22;22662;47.412;9.742;2022-11-24T06:00:46;5.80;99.90
36670;DHT22;22662;47.412;9.742;2022-11-24T06:03:12;5.80;99.90
36670;DHT22;22662;47.412;9.742;2022-11-24T06:05:37;5.80;99.90
36670;DHT22;22662;47.412;9.742;2022-11-24T06:08:03;5.80;99.90
36670;DHT22;22662;47.412;9.742;2022-11-24T06:10:28;5.90;99.90
36670;DHT22;22662;47.412;9.742;2022-11-24T06:12:54;5.80;99.90
36670;DHT22;22662;47.412;9.742;2022-11-24T06:15:20;6.00;99.90
36670;DHT22;22662;47.412;9.742;2022-11-24T06:17:54;6.00;99.90
36670;DHT22;22662;47.412;9.742;2022-11-24T06:20:20;6.30;99.90
36670;DHT22;22662;47.412;9.742;2022-11-24T06:22:46;6.40;99.90
36670;DHT22;22662;47.412;9.742;2022-11-24T06:25:12;6.70;99.90
36670;DHT22;22662;47.412;9.742;2022-11-24T06:27:38;6.50;99.90
36670;DHT22;22662;47.412;9.742;2022-11-24T06:30:04;6.30;99.90
36670;DHT22;22662;47.412;9.742;2022-11-24T06:32:29;6.30;99.90
36670;DHT22;22662;47.412;9.742;2022-11-24T06:34:55;6.30;99.90
36670;DHT22;22662;47.412;9.742;2022-11-24T06:37:20;6.20;99.90
36670;DHT22;22662;47.412;9.742;2022-11-24T06:39:46;6.20;99.90
36670;DHT22;22662;47.412;9.742;2022-11-24T06:42:12;6.00;99.90
36670;DHT22;22662;47.412;9.742;2022-11-24T06:44:38;6.00;99.90
36670;DHT22;22662;47.412;9.742;2022-11-24T06:47:03;6.00;99.90
36670;DHT22;22662;47.412;9.742;2022-11-24T06:49:29;5.90;99.90
36670;DHT22;22662;47.412;9.742;2022-11-24T06:51:54;5.80;99.90
36670;DHT22;22662;47.412;9.742;2022-11-24T06:54:20;5.80;99.90
36670;DHT22;22662;47.412;9.742;2022-11-24T06:56:46;5.70;99.90
36670;DHT22;22662;47.412;9.742;2022-11-24T06:59:16;5.60;99.90
36670;DHT22;22662;47.412;9.742;2022-11-24T07:01:42;5.60;99.90
36670;DHT22;22662;47.412;9.742;2022-11-24T07:04:08;5.60;99.90
36670;DHT22;22662;47.412;9.742;2022-11-24T07:06:34;5.60;99.90
36670;DHT22;22662;47.412;9.742;2022-11-24T07:09:00;5.60;99.90
36670;DHT22;22662;47.412;9.742;2022-11-24T07:11:25;5.70;99.90
36670;DHT22;22662;47.412;9.742;2022-11-24T07:13:51;5.70;99.90
36670;DHT22;22662;47.412;9.742;2022-11-24T07:16:20;5.70;99.90
36670;DHT22;22662;47.412;9.742;2022-11-24T07:18:47;5.70;99.90
36670;DHT22;22662;47.412;9.742;2022-11-24T07:21:13;5.70;99.90
36670;DHT22;22662;47.412;9.742;2022-11-24T07:23:39;5.80;99.90
36670;DHT22;22662;47.412;9.742;2022-11-24T07:26:05;5.80;99.90
36670;DHT22;22662;47.412;9.742;2022-11-24T07:28:31;5.90;99.90
36670;DHT22;22662;47.412;9.742;2022-11-24T07:30:56;6.00;99.90
36670;DHT22;22662;47.412;9.742;2022-11-24T07:33:23;6.00;99.90
36670;DHT22;22662;47.412;9.742;2022-11-24T07:35:53;6.10;99.90
36670;DHT22;22662;47.412;9.742;2022-11-24T07:38:19;6.20;99.90
36670;DHT22;22662;47.412;9.742;2022-11-24T07:40:45;6.20;99.90
36670;DHT22;22662;47.412;9.742;2022-11-24T07:43:10;6.30;99.90
36670;DHT22;22662;47.412;9.742;2022-11-24T07:45:36;6.40;99.90
36670;DHT22;22662;47.412;9.742;2022-11-24T07:48:01;6.40;99.90
36670;DHT22;22662;47.412;9.742;2022-11-24T07:50:27;6.40;99.90
36670;DHT22;22662;47.412;9.742;2022-11-24T07:52:53;6.40;99.90
36670;DHT22;22662;47.412;9.742;2022-11-24T07:55:18;6.40;99.90
36670;DHT22;22662;47.412;9.742;2022-11-24T07:57:44;6.40;99.90
36670;DHT22;22662;47.412;9.742;2022-11-24T08:00:09;6.30;99.90
36670;DHT22;22662;47.412;9.742;2022-11-24T08:02:35;6.40;99.90
36670;DHT22;22662;47.412;9.742;2022-11-24T08:05:01;6.30;99.90
36670;DHT22;22662;47.412;9.742;2022-11-24T08:07:26;6.30;99.90
36670;DHT22;22662;47.412;9.742;2022-11-24T08:09:52;6.30;99.90
36670;DHT22;22662;47.412;9.742;2022-11-24T08:12:18;6.40;99.90
36670;DHT22;22662;47.412;9.742;2022-11-24T08:14:49;6.30;99.90
36670;DHT22;22662;47.412;9.742;2022-11-24T08:17:15;6.20;99.90
36670;DHT22;22662;47.412;9.742;2022-11-24T08:19:41;6.30;99.90
36670;DHT22;22662;47.412;9.742;2022-11-24T08:22:07;6.30;99.90
36670;DHT22;22662;47.412;9.742;2022-11-24T08:24:32;6.40;99.90
36670;DHT22;22662;47.412;9.742;2022-11-24T08:26:58;6.50;99.90
36670;DHT22;22662;47.412;9.742;2022-11-24T08:29:26;6.50;99.90
36670;DHT22;22662;47.412;9.742;2022-11-24T08:31:52;6.50;99.90
36670;DHT22;22662;47.412;9.742;2022-11-24T08:34:24;6.50;99.90
36670;DHT22;22662;47.412;9.742;2022-11-24T08:36:50;6.50;99.90
36670;DHT22;22662;47.412;9.742;2022-11-24T08:39:15;6.70;99.90
36670;DHT22;22662;47.412;9.742;2022-11-24T08:41:41;6.70;99.90
36670;DHT22;22662;47.412;9.742;2022-11-24T08:44:07;6.80;99.90
36670;DHT22;22662;47.412;9.742;2022-11-24T08:46:34;6.80;99.90
36670;DHT22;22662;47.412;9.742;2022-11-24T08:49:00;6.70;99.90
36670;DHT22;22662;47.412;9.742;2022-11-24T08:51:26;6.70;99.90
36670;DHT22;22662;47.412;9.742;2022-11-24T08:53:55;6.70;99.90
36670;DHT22;22662;47.412;9.742;2022-11-24T08:56:21;6.70;99.90
36670;DHT22;22662;47.412;9.742;2022-11-24T08:58:46;6.80;99.90
36670;DHT22;22662;47.412;9.742;2022-11-24T09:01:13;6.80;99.90
36670;DHT22;22662;47.412;9.742;2022-11-24T09:03:39;7.00;99.90
36670;DHT22;22662;47.412;9.742;2022-11-24T09:06:05;7.10;99.90
36670;DHT22;22662;47.412;9.742;2022-11-24T09:08:31;7.10;99.90
36670;DHT22;22662;47.412;9.742;2022-11-24T09:10:58;7.00;99.90
36670;DHT22;22662;47.412;9.742;2022-11-24T09:13:24;7.20;99.90
36670;DHT22;22662;47.412;9.742;2022-11-24T09:15:49;7.20;99.90
36670;DHT22;22662;47.412;9.742;2022-11-24T09:18:15;7.30;99.90
36670;DHT22;22662;47.412;9.742;2022-11-24T09:20:40;7.20;99.90
36670;DHT22;22662;47.412;9.742;2022-11-24T09:23:06;7.20;99.90
36670;DHT22;22662;47.412;9.742;2022-11-24T09:25:31;7.20;99.90
36670;DHT22;22662;47.412;9.742;2022-11-24T09:27:57;7.20;99.90
36670;DHT22;22662;47.412;9.742;2022-11-24T09:30:26;7.30;99.90
36670;DHT22;22662;47.412;9.742;2022-11-24T09:32:54;7.30;99.90
36670;DHT22;22662;47.412;9.742;2022-11-24T09:35:19;7.20;99.90
36670;DHT22;22662;47.412;9.742;2022-11-24T09:37:45;7.10;99.90
36670;DHT22;22662;47.412;9.742;2022-11-24T09:40:12;7.00;99.90
36670;DHT22;22662;47.412;9.742;2022-11-24T09:42:40;7.00;99.90
36670;DHT22;22662;47.412;9.742;2022-11-24T09:54:59;6.90;99.90
36670;DHT22;22662;47.412;9.742;2022-11-24T09:57:27;6.90;99.90
36670;DHT22;22662;47.412;9.742;2022-11-24T09:59:54;7.00;99.90
36670;DHT22;22662;47.412;9.742;2022-11-24T10:02:24;7.00;99.90
36670;DHT22;22662;47.412;9.742;2022-11-24T10:04:49;6.90;99.90
36670;DHT22;22662;47.412;9.742;2022-11-24T10:07:29;6.90;99.90
36670;DHT22;22662;47.412;9.742;2022-11-24T10:10:17;6.90;99.90
36670;DHT22;22662;47.412;9.742;2022-11-24T10:25:58;6.80;99.90
36670;DHT22;22662;47.412;9.742;2022-11-24T10:33:44;7.20;99.90
36670;DHT22;22662;47.412;9.742;2022-11-24T10:36:12;7.50;99.90
36670;DHT22;22662;47.412;9.742;2022-11-24T10:38:41;7.70;99.90
36670;DHT22;22662;47.412;9.742;2022-11-24T10:41:17;7.70;99.90
36670;DHT22;22662;47.412;9.742;2022-11-24T10:43:44;7.80;99.90
36670;DHT22;22662;47.412;9.742;2022-11-24T10:46:28;7.90;99.90
36670;DHT22;22662;47.412;9.742;2022-11-24T10:49:01;8.10;99.90
36670;DHT22;22662;47.412;9.742;2022-11-24T10:53:53;8.60;99.90
36670;DHT22;22662;47.412;9.742;2022-11-24T10:56:22;8.80;99.90
36670;DHT22;22662;47.412;9.742;2022-11-24T10:58:47;8.70;99.90
36670;DHT22;22662;47.412;9.742;2022-11-24T11:03:45;8.70;99.90
36670;DHT22;22662;47.412;9.742;2022-11-24T11:06:18;8.90;99.90
36670;DHT22;22662;47.412;9.742;2022-11-24T11:08:45;9.20;99.90
36670;DHT22;22662;47.412;9.742;2022-11-24T11:11:12;9.40;99.90
36670;DHT22;22662;47.412;9.742;2022-11-24T11:13:48;9.60;99.90
36670;DHT22;22662;47.412;9.742;2022-11-24T11:16:25;9.60;99.90
36670;DHT22;22662;47.412;9.742;2022-11-24T11:18:51;9.80;99.90
36670;DHT22;22662;47.412;9.742;2022-11-24T11:21:51;9.80;99.90
36670;DHT22;22662;47.412;9.742;2022-11-24T11:24:14;10.10;99.90
36670;DHT22;22662;47.412;9.742;2022-11-24T11:26:41;10.10;99.90
36670;DHT22;22662;47.412;9.742;2022-11-24T11:31:33;10.00;99.90
36670;DHT22;22662;47.412;9.742;2022-11-24T11:36:24;10.30;99.90
36670;DHT22;22662;47.412;9.742;2022-11-24T11:38:50;10.30;99.90
36670;DHT22;22662;47.412;9.742;2022-11-24T11:41:39;10.40;99.90
36670;DHT22;22662;47.412;9.742;2022-11-24T11:46:31;9.90;99.90
36670;DHT22;22662;47.412;9.742;2022-11-24T11:48:57;10.00;99.90
36670;DHT22;22662;47.412;9.742;2022-11-24T11:59:00;10.00;99.90
36670;DHT22;22662;47.412;9.742;2022-11-24T12:02:03;10.10;99.90
36670;DHT22;22662;47.412;9.742;2022-11-24T12:06:53;9.90;99.90
36670;DHT22;22662;47.412;9.742;2022-11-24T12:09:31;9.90;99.90
36670;DHT22;22662;47.412;9.742;2022-11-24T12:22:46;9.50;99.90
36670;DHT22;22662;47.412;9.742;2022-11-24T12:27:50;9.40;99.90
36670;DHT22;22662;47.412;9.742;2022-11-24T12:30:29;9.20;99.90
36670;DHT22;22662;47.412;9.742;2022-11-24T12:33:13;9.10;99.90
36670;DHT22;22662;47.412;9.742;2022-11-24T12:35:42;9.00;99.90
36670;DHT22;22662;47.412;9.742;2022-11-24T12:38:12;8.70;99.90
36670;DHT22;22662;47.412;9.742;2022-11-24T12:45:46;8.30;99.90
36670;DHT22;22662;47.412;9.742;2022-11-24T12:51:19;7.90;99.90
36670;DHT22;22662;47.412;9.742;2022-11-24T12:53:48;7.70;99.90
36670;DHT22;22662;47.412;9.742;2022-11-24T12:56:15;7.70;99.90
36670;DHT22;22662;47.412;9.742;2022-11-24T12:58:47;7.60;99.90
36670;DHT22;22662;47.412;9.742;2022-11-24T13:06:28;7.70;99.90
36670;DHT22;22662;47.412;9.742;2022-11-24T13:08:57;7.80;99.90
36670;DHT22;22662;47.412;9.742;2022-11-24T13:11:23;8.00;99.90
36670;DHT22;22662;47.412;9.742;2022-11-24T13:13:57;8.10;99.90
36670;DHT22;22662;47.412;9.742;2022-11-24T13:16:23;8.10;99.90
36670;DHT22;22662;47.412;9.742;2022-11-24T13:24:03;8.20;99.90
36670;DHT22;22662;47.412;9.742;2022-11-24T13:26:31;8.00;99.90
36670;DHT22;22662;47.412;9.742;2022-11-24T13:31:55;7.70;99.90
36670;DHT22;22662;47.412;9.742;2022-11-24T13:39:52;7.60;99.90
36670;DHT22;22662;47.412;9.742;2022-11-24T13:42:19;7.70;99.90
36670;DHT22;22662;47.412;9.742;2022-11-24T13:44:48;7.90;99.90
36670;DHT22;22662;47.412;9.742;2022-11-24T13:49:58;8.30;99.90
36670;DHT22;22662;47.412;9.742;2022-11-24T13:52:40;8.50;99.90
36670;DHT22;22662;47.412;9.742;2022-11-24T14:00:55;8.70;99.90
36670;DHT22;22662;47.412;9.742;2022-11-24T14:03:18;8.60;99.90
36670;DHT22;22662;47.412;9.742;2022-11-24T14:05:44;8.50;99.90
36670;DHT22;22662;47.412;9.742;2022-11-24T14:08:19;8.60;99.90
36670;DHT22;22662;47.412;9.742;2022-11-24T14:10:46;8.50;99.90
36670;DHT22;22662;47.412;9.742;2022-11-24T14:13:31;8.40;99.90
36670;DHT22;22662;47.412;9.742;2022-11-24T14:15:57;8.40;99.90
36670;DHT22;22662;47.412;9.742;2022-11-24T14:18:23;8.50;99.90
36670;DHT22;22662;47.412;9.742;2022-11-24T14:20:49;8.60;99.90
36670;DHT22;22662;47.412;9.742;2022-11-24T14:23:14;8.60;99.90
36670;DHT22;22662;47.412;9.742;2022-11-24T14:25:40;8.50;99.90
36670;DHT22;22662;47.412;9.742;2022-11-24T14:28:17;8.50;99.90
36670;DHT22;22662;47.412;9.742;2022-11-24T14:30:44;8.40;99.90
36670;DHT22;22662;47.412;9.742;2022-11-24T14:33:10;8.20;99.90
36670;DHT22;22662;47.412;9.742;2022-11-24T14:35:43;8.00;99.90
36670;DHT22;22662;47.412;9.742;2022-11-24T14:38:10;7.90;99.90
36670;DHT22;22662;47.412;9.742;2022-11-24T14:43:12;7.90;99.90
36670;DHT22;22662;47.412;9.742;2022-11-24T14:45:46;7.90;99.90
36670;DHT22;22662;47.412;9.742;2022-11-24T14:48:15;7.90;99.90
36670;DHT22;22662;47.412;9.742;2022-11-24T14:50:41;7.90;99.90
36670;DHT22;22662;47.412;9.742;2022-11-24T14:53:09;7.90;99.90
36670;DHT22;22662;47.412;9.742;2022-11-24T14:55:38;7.90;99.90
36670;DHT22;22662;47.412;9.742;2022-11-24T14:58:17;8.00;99.90
36670;DHT22;22662;47.412;9.742;2022-11-24T15:00:43;7.90;99.90
36670;DHT22;22662;47.412;9.742;2022-11-24T15:03:14;7.70;99.90
36670;DHT22;22662;47.412;9.742;2022-11-24T15:05:54;7.60;99.90
36670;DHT22;22662;47.412;9.742;2022-11-24T15:08:20;7.50;99.90
36670;DHT22;22662;47.412;9.742;2022-11-24T15:10:46;7.40;99.90
36670;DHT22;22662;47.412;9.742;2022-11-24T15:13:19;7.30;99.90
36670;DHT22;22662;47.412;9.742;2022-11-24T15:15:50;7.20;99.90
36670;DHT22;22662;47.412;9.742;2022-11-24T15:21:01;7.10;99.90
36670;DHT22;22662;47.412;9.742;2022-11-24T15:23:31;6.90;99.90
36670;DHT22;22662;47.412;9.742;2022-11-24T15:26:21;6.90;99.90
36670;DHT22;22662;47.412;9.742;2022-11-24T15:28:44;6.80;99.90
36670;DHT22;22662;47.412;9.742;2022-11-24T15:31:10;6.70;99.90
36670;DHT22;22662;47.412;9.742;2022-11-24T15:33:37;6.60;99.90
36670;DHT22;22662;47.412;9.742;2022-11-24T15:36:03;6.50;99.90
36670;DHT22;22662;47.412;9.742;2022-11-24T15:38:28;6.50;99.90
36670;DHT22;22662;47.412;9.742;2022-11-24T15:40:54;6.50;99.90
36670;DHT22;22662;47.412;9.742;2022-11-24T15:43:33;6.50;99.90
36670;DHT22;22662;47.412;9.742;2022-11-24T15:45:59;6.60;99.90
36670;DHT22;22662;47.412;9.742;2022-11-24T15:48:25;6.50;99.90
36670;DHT22;22662;47.412;9.742;2022-11-24T15:50:51;6.40;99.90
36670;DHT22;22662;47.412;9.742;2022-11-24T15:53:30;6.40;99.90
36670;DHT22;22662;47.412;9.742;2022-11-24T15:55:57;6.40;99.90
36670;DHT22;22662;47.412;9.742;2022-11-24T15:58:23;6.20;99.90
36670;DHT22;22662;47.412;9.742;2022-11-24T16:00:49;6.10;99.90
36670;DHT22;22662;47.412;9.742;2022-11-24T16:03:17;6.10;99.90
36670;DHT22;22662;47.412;9.742;2022-11-24T16:05:43;6.00;99.90
36670;DHT22;22662;47.412;9.742;2022-11-24T16:08:12;6.00;99.90
36670;DHT22;22662;47.412;9.742;2022-11-24T16:10:38;6.00;99.90
36670;DHT22;22662;47.412;9.742;2022-11-24T16:13:04;6.00;99.90
36670;DHT22;22662;47.412;9.742;2022-11-24T16:15:29;5.90;99.90
36670;DHT22;22662;47.412;9.742;2022-11-24T16:17:55;5.80;99.90
36670;DHT22;22662;47.412;9.742;2022-11-24T16:20:21;5.80;99.90
36670;DHT22;22662;47.412;9.742;2022-11-24T16:22:46;5.70;99.90
36670;DHT22;22662;47.412;9.742;2022-11-24T16:25:12;5.70;99.90
36670;DHT22;22662;47.412;9.742;2022-11-24T16:27:38;5.60;99.90
36670;DHT22;22662;47.412;9.742;2022-11-24T16:30:04;5.60;99.90
36670;DHT22;22662;47.412;9.742;2022-11-24T16:32:30;5.50;99.90
36670;DHT22;22662;47.412;9.742;2022-11-24T16:34:56;5.50;99.90
36670;DHT22;22662;47.412;9.742;2022-11-24T16:37:21;5.50;99.90
36670;DHT22;22662;47.412;9.742;2022-11-24T16:39:47;5.50;99.90
36670;DHT22;22662;47.412;9.742;2022-11-24T16:42:13;5.40;99.90
36670;DHT22;22662;47.412;9.742;2022-11-24T16:44:39;5.40;99.90
36670;DHT22;22662;47.412;9.742;2022-11-24T16:47:05;5.40;99.90
36670;DHT22;22662;47.412;9.742;2022-11-24T16:49:30;5.40;99.90
36670;DHT22;22662;47.412;9.742;2022-11-24T16:51:56;5.40;99.90
36670;DHT22;22662;47.412;9.742;2022-11-24T16:54:21;5.40;99.90
36670;DHT22;22662;47.412;9.742;2022-11-24T16:56:47;5.40;99.90
36670;DHT22;22662;47.412;9.742;2022-11-24T16:59:12;5.40;99.90
36670;DHT22;22662;47.412;9.742;2022-11-24T17:01:38;5.40;99.90
36670;DHT22;22662;47.412;9.742;2022-11-24T17:04:05;5.30;99.90
36670;DHT22;22662;47.412;9.742;2022-11-24T17:06:31;5.30;99.90
36670;DHT22;22662;47.412;9.742;2022-11-24T17:08:56;5.30;99.90
36670;DHT22;22662;47.412;9.742;2022-11-24T17:11:22;5.20;99.90
36670;DHT22;22662;47.412;9.742;2022-11-24T17:13:48;5.20;99.90
36670;DHT22;22662;47.412;9.742;2022-11-24T17:16:15;5.10;99.90
36670;DHT22;22662;47.412;9.742;2022-11-24T17:18:41;5.00;99.90
36670;DHT22;22662;47.412;9.742;2022-11-24T17:21:14;5.10;99.90
36670;DHT22;22662;47.412;9.742;2022-11-24T17:23:40;5.10;99.90
36670;DHT22;22662;47.412;9.742;2022-11-24T17:26:06;5.10;99.90
36670;DHT22;22662;47.412;9.742;2022-11-24T17:28:32;5.10;99.90
36670;DHT22;22662;47.412;9.742;2022-11-24T17:30:58;5.10;99.90
36670;DHT22;22662;47.412;9.742;2022-11-24T17:33:23;5.00;99.90